createdAt,value
2018-06-17T00:01:14.981Z,16.86
2018-06-17T00:03:42.045Z,16.85
2018-06-17T00:06:09.151Z,16.90
2018-06-17T00:08:36.385Z,16.90
2018-06-17T00:11:05.754Z,16.87
2018-06-17T00:13:32.849Z,16.81
2018-06-17T00:15:59.867Z,16.62
2018-06-17T00:18:26.918Z,16.62
2018-06-17T00:20:54.039Z,16.64
2018-06-17T00:23:21.152Z,16.56
2018-06-17T00:25:55.114Z,16.53
2018-06-17T00:28:22.217Z,16.51
2018-06-17T00:30:49.267Z,16.50
2018-06-17T00:33:16.289Z,16.55
2018-06-17T00:35:43.469Z,16.59
2018-06-17T00:38:10.610Z,16.60
2018-06-17T00:40:37.614Z,16.63
2018-06-17T00:43:04.666Z,16.67
2018-06-17T00:45:31.704Z,16.70
2018-06-17T00:47:58.712Z,16.69
2018-06-17T00:50:25.846Z,16.67
2018-06-17T00:52:52.916Z,16.67
2018-06-17T00:55:19.932Z,16.69
2018-06-17T00:57:49.623Z,16.75
2018-06-17T01:00:16.930Z,16.64
2018-06-17T01:02:44.385Z,16.67
2018-06-17T01:05:11.629Z,16.72
2018-06-17T01:07:38.638Z,16.63
2018-06-17T01:10:05.682Z,16.55
2018-06-17T01:12:32.777Z,16.49
2018-06-17T01:15:00.043Z,16.44
2018-06-17T01:17:27.057Z,16.39
2018-06-17T01:19:54.070Z,16.38
2018-06-17T01:22:21.127Z,16.47
2018-06-17T01:24:48.141Z,16.39
2018-06-17T01:27:15.161Z,16.29
2018-06-17T01:29:42.201Z,16.26
2018-06-17T01:32:09.233Z,16.27
2018-06-17T01:34:36.332Z,16.28
2018-06-17T01:37:03.384Z,16.30
2018-06-17T01:39:30.483Z,16.29
2018-06-17T01:41:57.533Z,16.20
2018-06-17T01:44:24.558Z,16.16
2018-06-17T01:46:51.666Z,16.19
2018-06-17T01:49:18.681Z,16.15
2018-06-17T01:51:45.690Z,16.21
2018-06-17T01:54:12.811Z,16.25
2018-06-17T01:56:39.853Z,16.16
2018-06-17T01:59:07.276Z,16.13
2018-06-17T02:01:34.299Z,16.20
2018-06-17T02:04:07.090Z,16.24
2018-06-17T02:06:39.812Z,16.23
2018-06-17T02:09:12.573Z,16.22
2018-06-17T02:11:46.842Z,16.21
2018-06-17T02:14:19.527Z,16.30
2018-06-17T02:16:46.618Z,16.28
2018-06-17T02:19:13.630Z,16.12
2018-06-17T02:21:40.665Z,16.09
2018-06-17T02:24:08.493Z,16.36
2018-06-17T02:26:35.505Z,16.50
2018-06-17T02:29:02.545Z,16.29
2018-06-17T02:31:29.561Z,16.20
2018-06-17T02:33:56.572Z,16.25
2018-06-17T02:36:23.569Z,16.18
2018-06-17T02:38:50.687Z,16.22
2018-06-17T02:41:17.733Z,16.20
2018-06-17T02:43:44.768Z,16.22
2018-06-17T02:46:17.467Z,16.35
2018-06-17T02:48:50.155Z,16.28
2018-06-17T02:51:22.842Z,16.29
2018-06-17T02:53:55.582Z,16.18
2018-06-17T02:56:22.589Z,16.11
2018-06-17T02:58:49.629Z,16.11
2018-06-17T03:01:16.685Z,16.03
2018-06-17T03:03:43.807Z,15.98
2018-06-17T03:06:10.805Z,16.07
2018-06-17T03:08:37.953Z,16.65
2018-06-17T03:11:05.074Z,16.84
2018-06-17T03:13:32.119Z,17.16
2018-06-17T03:15:59.129Z,17.19
2018-06-17T03:18:26.133Z,17.02
2018-06-17T03:20:53.190Z,16.94
2018-06-17T03:23:20.281Z,16.82
2018-06-17T03:25:52.941Z,16.97
2018-06-17T03:28:25.679Z,16.84
2018-06-17T03:30:58.382Z,17.09
2018-06-17T03:33:30.987Z,17.09
2018-06-17T03:36:03.934Z,16.98
2018-06-17T03:38:30.984Z,16.90
2018-06-17T03:40:57.989Z,16.77
2018-06-17T03:43:24.981Z,16.73
2018-06-17T03:45:52.005Z,16.86
2018-06-17T03:48:19.030Z,16.92
2018-06-17T03:50:46.349Z,16.90
2018-06-17T03:53:13.363Z,16.97
2018-06-17T03:55:40.382Z,16.94
2018-06-17T03:58:07.413Z,16.86
2018-06-17T04:00:34.453Z,16.83
2018-06-17T04:03:01.479Z,16.58
2018-06-17T04:05:30.484Z,16.67
2018-06-17T04:07:59.546Z,16.78
2018-06-17T04:10:27.422Z,17.29
2018-06-17T04:12:54.792Z,17.15
2018-06-17T04:15:21.915Z,16.95
2018-06-17T04:17:48.928Z,16.77
2018-06-17T04:20:15.961Z,16.94
2018-06-17T04:22:42.980Z,16.67
2018-06-17T04:25:10.001Z,16.94
2018-06-17T04:27:37.177Z,16.79
2018-06-17T04:30:04.286Z,16.91
2018-06-17T04:32:31.313Z,16.93
2018-06-17T04:34:58.402Z,16.52
2018-06-17T04:37:25.422Z,16.32
2018-06-17T04:39:52.442Z,16.38
2018-06-17T04:42:19.767Z,16.41
2018-06-17T04:44:47.199Z,16.53
2018-06-17T04:47:14.205Z,16.57
2018-06-17T04:49:41.268Z,16.31
2018-06-17T04:52:08.881Z,16.37
2018-06-17T04:54:35.886Z,16.39
2018-06-17T04:57:02.926Z,16.21
2018-06-17T04:59:29.933Z,16.16
2018-06-17T05:01:56.966Z,16.22
2018-06-17T05:04:24.068Z,16.15
2018-06-17T05:06:51.253Z,16.11
2018-06-17T05:09:18.258Z,16.33
2018-06-17T05:11:45.269Z,16.55
2018-06-17T05:14:12.285Z,16.45
2018-06-17T05:16:39.297Z,16.26
2018-06-17T05:19:06.310Z,16.21
2018-06-17T05:21:33.364Z,16.31
2018-06-17T05:24:00.379Z,16.60
2018-06-17T05:26:27.618Z,16.64
2018-06-17T05:28:54.793Z,16.78
2018-06-17T05:31:21.903Z,16.58
2018-06-17T05:33:48.985Z,16.47
2018-06-17T05:36:16.090Z,16.60
2018-06-17T05:38:43.274Z,16.45
2018-06-17T05:41:10.485Z,16.57
2018-06-17T05:43:37.589Z,17.16
2018-06-17T05:46:04.654Z,17.17
2018-06-17T05:48:31.688Z,17.04
2018-06-17T05:50:58.810Z,16.84
2018-06-17T05:53:26.473Z,16.96
2018-06-17T05:55:53.561Z,16.75
2018-06-17T05:58:20.642Z,16.67
2018-06-17T06:00:47.741Z,16.88
2018-06-17T06:03:14.825Z,16.64
2018-06-17T06:05:41.889Z,16.51
2018-06-17T06:08:08.911Z,16.46
2018-06-17T06:10:35.957Z,16.54
2018-06-17T06:13:02.989Z,16.63
2018-06-17T06:15:30.027Z,16.98
2018-06-17T06:17:57.057Z,16.87
2018-06-17T06:20:24.077Z,16.80
2018-06-17T06:22:51.211Z,16.79
2018-06-17T06:25:18.326Z,16.89
2018-06-17T06:27:45.426Z,16.63
2018-06-17T06:30:12.533Z,16.64
2018-06-17T06:32:39.676Z,16.63
2018-06-17T06:35:06.678Z,16.63
2018-06-17T06:37:34.053Z,16.65
2018-06-17T06:40:01.082Z,16.72
2018-06-17T06:42:28.246Z,16.88
2018-06-17T06:44:55.406Z,16.70
2018-06-17T06:47:22.437Z,16.59
2018-06-17T06:49:49.557Z,16.67
2018-06-17T06:52:16.737Z,16.77
2018-06-17T06:54:43.787Z,16.83
2018-06-17T06:57:10.836Z,16.70
2018-06-17T06:59:37.870Z,16.70
2018-06-17T07:02:16.884Z,16.79
2018-06-17T07:04:55.638Z,16.93
2018-06-17T07:07:34.261Z,17.09
2018-06-17T07:10:12.981Z,17.08
2018-06-17T07:12:40.049Z,17.22
2018-06-17T07:15:07.342Z,17.24
2018-06-17T07:17:46.193Z,17.20
2018-06-17T07:20:13.197Z,17.14
2018-06-17T07:22:42.938Z,17.08
2018-06-17T07:25:18.108Z,17.42
2018-06-17T07:29:00.990Z,17.34
2018-06-17T07:31:28.050Z,17.62
2018-06-17T07:33:55.113Z,17.66
2018-06-17T07:36:22.186Z,17.87
2018-06-17T07:38:49.262Z,17.88
2018-06-17T07:41:16.302Z,17.68
2018-06-17T07:43:43.396Z,17.53
2018-06-17T07:46:10.434Z,17.30
2018-06-17T07:49:49.909Z,17.32
2018-06-17T07:52:29.647Z,17.33
2018-06-17T07:54:57.013Z,17.27
2018-06-17T07:57:25.379Z,17.39
2018-06-17T07:59:52.420Z,17.27
2018-06-17T08:02:19.493Z,17.13
2018-06-17T08:04:46.594Z,17.40
2018-06-17T08:07:13.606Z,17.76
2018-06-17T08:09:40.685Z,17.81
2018-06-17T08:12:08.602Z,17.76
2018-06-17T08:14:35.645Z,17.97
2018-06-17T08:17:02.719Z,17.89
2018-06-17T08:19:30.127Z,17.88
2018-06-17T08:21:57.876Z,17.88
2018-06-17T08:24:25.280Z,18.01
2018-06-17T08:26:52.358Z,17.97
2018-06-17T08:29:19.364Z,18.08
2018-06-17T08:31:46.389Z,17.99
2018-06-17T08:34:13.896Z,17.82
2018-06-17T08:36:41.329Z,17.93
2018-06-17T08:39:11.317Z,18.08
2018-06-17T08:41:38.570Z,18.11
2018-06-17T08:44:05.693Z,18.07
2018-06-17T08:46:32.814Z,18.11
2018-06-17T08:48:59.834Z,18.29
2018-06-17T08:51:26.861Z,18.14
2018-06-17T08:53:54.362Z,18.08
2018-06-17T08:56:21.385Z,18.27
2018-06-17T08:58:48.416Z,18.28
2018-06-17T09:01:15.466Z,18.49
2018-06-17T09:03:42.483Z,18.60
2018-06-17T09:06:09.534Z,18.64
2018-06-17T09:08:36.541Z,18.43
2018-06-17T09:11:03.657Z,18.36
2018-06-17T09:13:30.677Z,18.22
2018-06-17T09:15:57.773Z,18.25
2018-06-17T09:18:24.840Z,18.30
2018-06-17T09:20:51.914Z,18.43
2018-06-17T09:23:19.266Z,18.41
2018-06-17T09:25:46.384Z,18.28
2018-06-17T09:28:13.438Z,18.20
2018-06-17T09:30:40.533Z,18.27
2018-06-17T09:33:07.560Z,18.39
2018-06-17T09:35:34.577Z,18.47
2018-06-17T09:38:01.780Z,18.53
2018-06-17T09:40:28.767Z,18.69
2018-06-17T09:42:55.778Z,18.64
2018-06-17T09:45:22.840Z,18.61
2018-06-17T09:47:49.861Z,18.74
2018-06-17T09:50:16.874Z,18.66
2018-06-17T09:52:43.926Z,18.69
2018-06-17T09:55:10.949Z,18.88
2018-06-17T09:57:37.959Z,18.84
2018-06-17T10:00:05.001Z,18.77
2018-06-17T10:02:32.070Z,18.96
2018-06-17T10:04:59.097Z,19.30
2018-06-17T10:07:26.127Z,19.29
2018-06-17T10:10:39.241Z,19.46
2018-06-17T10:13:06.270Z,19.41
2018-06-17T10:15:33.374Z,19.45
2018-06-17T10:18:00.414Z,19.37
2018-06-17T10:20:27.486Z,19.40
2018-06-17T10:22:54.558Z,19.39
2018-06-17T10:25:21.653Z,19.67
2018-06-17T10:27:48.854Z,19.91
2018-06-17T10:30:15.857Z,20.16
2018-06-17T10:32:42.921Z,20.06
2018-06-17T10:35:09.945Z,19.95
2018-06-17T10:37:36.949Z,20.04
2018-06-17T10:40:04.001Z,20.23
2018-06-17T10:42:31.087Z,20.56
2018-06-17T10:44:58.109Z,20.37
2018-06-17T10:47:25.138Z,20.48
2018-06-17T10:49:52.200Z,20.58
2018-06-17T10:52:19.296Z,20.56
2018-06-17T10:54:46.378Z,20.75
2018-06-17T10:57:14.693Z,20.73
2018-06-17T10:59:41.714Z,20.77
2018-06-17T11:02:08.817Z,20.59
2018-06-17T11:04:35.835Z,20.73
2018-06-17T11:07:02.858Z,20.66
2018-06-17T11:09:29.894Z,20.51
2018-06-17T11:11:56.896Z,20.88
2018-06-17T11:14:23.917Z,20.68
2018-06-17T11:16:51.275Z,20.65
2018-06-17T11:19:18.370Z,20.63
2018-06-17T11:21:45.375Z,20.60
2018-06-17T11:24:12.398Z,20.70
2018-06-17T11:26:39.443Z,20.81
2018-06-17T11:29:06.433Z,20.70
2018-06-17T11:31:33.769Z,20.81
2018-06-17T11:34:00.861Z,20.70
2018-06-17T11:36:27.896Z,20.64
2018-06-17T11:38:54.974Z,20.57
2018-06-17T11:41:22.270Z,20.58
2018-06-17T11:43:49.309Z,20.53
2018-06-17T11:46:18.640Z,20.80
2018-06-17T11:48:45.735Z,20.75
2018-06-17T11:51:12.728Z,20.82
2018-06-17T11:53:39.796Z,21.04
2018-06-17T11:56:06.800Z,21.14
2018-06-17T11:58:33.805Z,21.11
2018-06-17T12:01:00.925Z,20.97
2018-06-17T12:03:27.926Z,20.94
2018-06-17T12:05:55.114Z,21.08
2018-06-17T12:08:22.137Z,21.38
2018-06-17T12:10:49.157Z,21.35
2018-06-17T12:13:16.166Z,21.27
2018-06-17T12:15:43.433Z,21.07
2018-06-17T12:18:10.549Z,21.30
2018-06-17T12:20:37.961Z,21.42
2018-06-17T12:23:05.101Z,21.50
2018-06-17T12:25:32.130Z,21.50
2018-06-17T12:27:59.252Z,21.67
2018-06-17T12:30:26.262Z,21.79
2018-06-17T12:32:53.266Z,21.55
2018-06-17T12:35:20.296Z,21.57
2018-06-17T12:37:47.296Z,21.87
2018-06-17T12:40:14.356Z,21.54
2018-06-17T12:42:41.351Z,21.75
2018-06-17T12:45:08.394Z,21.38
2018-06-17T12:47:35.393Z,21.25
2018-06-17T12:50:02.452Z,21.13
2018-06-17T12:52:29.473Z,21.10
2018-06-17T12:54:56.669Z,20.85
2018-06-17T12:57:24.520Z,20.75
2018-06-17T12:59:51.537Z,20.59
2018-06-17T13:02:18.561Z,20.47
2018-06-17T13:04:45.659Z,20.48
2018-06-17T13:07:12.695Z,20.42
2018-06-17T13:09:39.765Z,20.43
2018-06-17T13:12:06.771Z,20.36
2018-06-17T13:14:33.778Z,20.41
2018-06-17T13:17:00.849Z,20.26
2018-06-17T13:19:27.937Z,20.34
2018-06-17T13:21:54.986Z,20.19
2018-06-17T13:24:22.018Z,20.03
2018-06-17T13:26:49.078Z,20.06
2018-06-17T13:29:16.254Z,20.32
2018-06-17T13:31:43.263Z,20.98
2018-06-17T13:34:10.265Z,21.34
2018-06-17T13:36:37.371Z,21.28
2018-06-17T13:39:06.442Z,21.41
2018-06-17T13:41:33.546Z,21.14
2018-06-17T13:44:00.558Z,20.72
2018-06-17T13:46:27.577Z,20.62
2018-06-17T13:48:54.592Z,20.27
2018-06-17T13:51:21.618Z,20.22
2018-06-17T13:53:48.640Z,20.44
2018-06-17T13:56:15.648Z,20.24
2018-06-17T13:58:42.744Z,20.36
2018-06-17T14:01:09.763Z,20.11
2018-06-17T14:03:36.772Z,19.93
2018-06-17T14:06:03.894Z,19.67
2018-06-17T14:08:30.928Z,19.18
2018-06-17T14:10:57.953Z,19.46
2018-06-17T14:13:24.976Z,19.27
2018-06-17T14:15:52.272Z,19.11
2018-06-17T14:18:19.314Z,19.04
2018-06-17T14:20:46.393Z,19.04
2018-06-17T14:23:13.453Z,18.84
2018-06-17T14:25:40.563Z,18.66
2018-06-17T14:28:07.604Z,18.66
2018-06-17T14:30:34.662Z,18.75
2018-06-17T14:33:01.702Z,18.70
2018-06-17T14:35:28.790Z,18.68
2018-06-17T14:40:34.246Z,18.82
2018-06-17T14:43:07.025Z,19.07
2018-06-17T14:45:39.649Z,19.15
2018-06-17T14:48:12.585Z,19.20
2018-06-17T14:50:45.132Z,19.27
2018-06-17T14:53:12.482Z,19.14
2018-06-17T14:55:39.490Z,19.10
2018-06-17T14:58:06.593Z,18.96
2018-06-17T15:00:33.637Z,18.84
2018-06-17T15:03:00.686Z,18.89
2018-06-17T15:05:27.718Z,18.72
2018-06-17T15:07:54.839Z,18.77
2018-06-17T15:10:21.884Z,18.66
2018-06-17T15:12:48.976Z,18.63
2018-06-17T15:15:15.945Z,18.54
2018-06-17T15:17:43.041Z,18.47
2018-06-17T15:20:10.133Z,18.47
2018-06-17T15:22:37.199Z,18.48
2018-06-17T15:25:04.263Z,18.44
2018-06-17T15:27:31.267Z,18.39
2018-06-17T15:29:58.290Z,18.44
2018-06-17T15:32:31.077Z,18.61
2018-06-17T15:35:04.021Z,18.47
2018-06-17T15:37:36.986Z,18.63
2018-06-17T15:40:04.081Z,18.71
2018-06-17T15:42:31.094Z,19.17
2018-06-17T15:44:58.134Z,19.31
2018-06-17T15:47:25.166Z,19.62
2018-06-17T15:49:52.193Z,19.65
2018-06-17T15:52:19.441Z,19.49
2018-06-17T15:54:46.462Z,19.52
2018-06-17T15:57:13.566Z,19.44
2018-06-17T15:59:40.528Z,19.37
2018-06-17T16:02:07.617Z,19.20
2018-06-17T16:04:34.623Z,19.30
2018-06-17T16:07:01.677Z,19.13
2018-06-17T16:09:28.792Z,18.86
2018-06-17T16:12:01.611Z,18.67
2018-06-17T16:14:34.254Z,18.51
2018-06-17T16:17:06.966Z,18.57
2018-06-17T16:19:39.873Z,18.56
2018-06-17T16:22:06.908Z,18.57
2018-06-17T16:24:33.937Z,18.51
2018-06-17T16:27:00.974Z,18.51
2018-06-17T16:29:27.996Z,18.63
2018-06-17T16:31:55.001Z,18.54
2018-06-17T16:34:22.282Z,18.49
2018-06-17T16:36:49.367Z,18.42
2018-06-17T16:39:16.394Z,18.44
2018-06-17T16:41:43.408Z,18.38
2018-06-17T16:44:11.082Z,18.40
2018-06-17T16:46:38.844Z,18.33
2018-06-17T16:49:06.105Z,18.21
2018-06-17T16:51:38.753Z,18.22
2018-06-17T16:54:11.454Z,18.15
2018-06-17T16:56:44.209Z,18.12
2018-06-17T16:59:16.924Z,18.17
2018-06-17T17:01:44.024Z,18.18
2018-06-17T17:04:11.063Z,18.17
2018-06-17T17:06:38.086Z,18.17
2018-06-17T17:09:07.526Z,18.14
2018-06-17T17:11:34.561Z,18.14
2018-06-17T17:14:01.590Z,18.22
2018-06-17T17:16:28.711Z,18.22
2018-06-17T17:18:55.999Z,18.08
2018-06-17T17:21:23.011Z,18.16
2018-06-17T17:23:50.005Z,18.15
2018-06-17T17:26:17.134Z,18.06
2018-06-17T17:28:44.148Z,18.00
2018-06-17T17:31:11.246Z,18.03
2018-06-17T17:33:43.951Z,18.00
2018-06-17T17:36:16.738Z,18.08
2018-06-17T17:38:49.537Z,18.12
2018-06-17T17:41:16.534Z,18.03
2018-06-17T17:43:43.530Z,18.04
2018-06-17T17:46:16.148Z,17.92
2018-06-17T17:48:43.155Z,17.99
2018-06-17T17:51:10.148Z,18.13
2018-06-17T17:53:37.223Z,17.91
2018-06-17T17:56:04.268Z,17.98
2018-06-17T17:58:31.458Z,17.95
2018-06-17T18:00:58.513Z,17.93
2018-06-17T18:03:25.522Z,17.78
2018-06-17T18:05:52.595Z,17.86
2018-06-17T18:08:19.678Z,17.94
2018-06-17T18:10:46.794Z,17.90
2018-06-17T18:13:13.843Z,17.80
2018-06-17T18:15:40.889Z,17.79
2018-06-17T18:18:07.946Z,17.90
2018-06-17T18:20:35.040Z,17.84
2018-06-17T18:23:02.018Z,17.71
2018-06-17T18:25:34.872Z,17.73
2018-06-17T18:28:07.682Z,17.74
2018-06-17T18:30:40.443Z,17.81
2018-06-17T18:34:16.921Z,17.78
2018-06-17T18:36:44.053Z,17.78
2018-06-17T18:39:11.080Z,17.80
2018-06-17T18:41:38.090Z,17.86
2018-06-17T18:44:05.126Z,17.84
2018-06-17T18:46:32.138Z,17.76
2018-06-17T18:48:59.192Z,17.77
2018-06-17T18:51:26.184Z,17.73
2018-06-17T18:53:53.207Z,17.71
2018-06-17T18:56:20.310Z,17.71
2018-06-17T18:58:47.322Z,17.68
2018-06-17T19:01:14.354Z,17.65
2018-06-17T19:03:41.376Z,17.64
2018-06-17T19:06:08.485Z,17.66
2018-06-17T19:08:41.221Z,17.61
2018-06-17T19:11:13.861Z,17.55
2018-06-17T19:13:46.820Z,17.40
2018-06-17T19:16:19.782Z,17.49
2018-06-17T19:18:46.848Z,17.39
2018-06-17T19:21:13.929Z,17.46
2018-06-17T19:23:41.077Z,17.58
2018-06-17T19:26:08.122Z,17.55
2018-06-17T19:28:35.133Z,17.46
2018-06-17T19:31:02.150Z,17.48
2018-06-17T19:33:29.188Z,17.43
2018-06-17T19:35:56.192Z,17.59
2018-06-17T19:38:23.229Z,17.54
2018-06-17T19:40:50.506Z,17.41
2018-06-17T19:43:17.492Z,17.34
2018-06-17T19:45:44.522Z,17.32
2018-06-17T19:48:11.663Z,17.34
2018-06-17T19:50:44.378Z,17.39
2018-06-17T19:53:17.303Z,17.56
2018-06-17T19:56:49.767Z,17.42
2018-06-17T19:59:22.560Z,17.42
2018-06-17T20:01:49.576Z,17.22
2018-06-17T20:04:16.597Z,17.14
2018-06-17T20:06:47.172Z,17.16
2018-06-17T20:09:14.196Z,17.28
2018-06-17T20:11:41.275Z,17.51
2018-06-17T20:14:08.253Z,17.59
2018-06-17T20:16:35.530Z,17.40
2018-06-17T20:19:02.641Z,17.40
2018-06-17T20:21:29.774Z,17.35
2018-06-17T20:23:56.775Z,17.35
2018-06-17T20:26:23.789Z,17.45
2018-06-17T20:28:50.822Z,17.40
2018-06-17T20:31:17.833Z,17.47
2018-06-17T20:33:50.558Z,17.33
2018-06-17T20:36:23.362Z,16.88
2018-06-17T20:38:56.041Z,16.77
2018-06-17T20:41:28.898Z,17.16
2018-06-17T20:43:56.045Z,17.17
2018-06-17T20:46:23.161Z,17.03
2018-06-17T20:48:50.584Z,17.17
2018-06-17T20:51:18.452Z,17.05
2018-06-17T20:53:45.505Z,16.84
2018-06-17T20:56:12.617Z,16.57
2018-06-17T20:58:39.709Z,16.59
2018-06-17T21:01:06.737Z,16.36
2018-06-17T21:03:33.746Z,16.16
2018-06-17T21:06:00.753Z,16.19
2018-06-17T21:08:27.900Z,16.35
2018-06-17T21:10:54.920Z,16.15
2018-06-17T21:13:22.197Z,16.20
2018-06-17T21:15:49.199Z,16.23
2018-06-17T21:18:22.154Z,16.21
2018-06-17T21:20:54.762Z,16.21
2018-06-17T21:23:27.402Z,15.98
2018-06-17T21:26:00.279Z,16.07
2018-06-17T21:28:27.393Z,15.95
2018-06-17T21:30:54.812Z,15.98
2018-06-17T21:33:21.769Z,16.01
2018-06-17T21:35:48.777Z,15.87
2018-06-17T21:38:15.873Z,15.91
2018-06-17T21:40:42.889Z,15.99
2018-06-17T21:43:09.992Z,15.93
2018-06-17T21:45:37.019Z,15.79
2018-06-17T21:48:04.058Z,15.75
2018-06-17T21:50:31.234Z,15.67
2018-06-17T21:52:58.333Z,15.51
2018-06-17T21:55:25.344Z,15.32
2018-06-17T21:57:52.393Z,15.21
2018-06-17T22:00:19.491Z,15.54
2018-06-17T22:02:46.493Z,15.27
2018-06-17T22:05:13.735Z,15.16
2018-06-17T22:07:46.445Z,15.37
2018-06-17T22:10:19.124Z,15.52
2018-06-17T22:12:51.798Z,15.51
2018-06-17T22:15:24.428Z,15.65
2018-06-17T22:17:52.443Z,15.57
2018-06-17T22:20:19.770Z,15.67
2018-06-17T22:22:46.785Z,15.74
2018-06-17T22:25:13.844Z,15.73
2018-06-17T22:27:41.033Z,15.84
2018-06-17T22:30:08.057Z,15.83
2018-06-17T22:32:35.081Z,15.59
2018-06-17T22:35:02.141Z,15.35
2018-06-17T22:37:29.160Z,15.29
2018-06-17T22:39:56.157Z,15.38
2018-06-17T22:42:23.177Z,15.45
2018-06-17T22:44:50.177Z,15.59
2018-06-17T22:47:21.778Z,15.57
2018-06-17T22:49:48.796Z,15.49
2018-06-17T22:52:15.816Z,15.48
2018-06-17T22:54:49.598Z,15.42
2018-06-17T22:57:22.334Z,15.35
2018-06-17T22:59:55.085Z,15.30
2018-06-17T23:02:27.900Z,15.26
2018-06-17T23:05:00.632Z,15.29
2018-06-17T23:07:33.273Z,15.17
2018-06-17T23:10:00.405Z,15.05
2018-06-17T23:12:27.600Z,15.11
2018-06-17T23:14:54.695Z,15.18
2018-06-17T23:17:21.698Z,15.06
2018-06-17T23:19:48.735Z,15.05
2018-06-17T23:22:15.736Z,14.98
2018-06-17T23:24:42.734Z,14.97
2018-06-17T23:27:09.743Z,14.91
2018-06-17T23:29:43.561Z,14.94
2018-06-17T23:32:10.585Z,14.88
2018-06-17T23:34:37.584Z,14.76
2018-06-17T23:37:04.874Z,14.84
2018-06-17T23:39:31.852Z,14.70
2018-06-17T23:41:58.926Z,14.43
2018-06-17T23:44:25.958Z,14.76
2018-06-17T23:46:58.769Z,14.78
2018-06-17T23:49:31.501Z,14.82
2018-06-17T23:52:04.088Z,14.74
2018-06-17T23:54:36.821Z,14.83
2018-06-17T23:57:03.880Z,14.70
2018-06-17T23:59:30.966Z,14.66
